Perry, Iowa
Current Conditions -  °F | °C
As of 1:15 AM on Sunday 23 Nov 2014 (Local Time) from KPRO Reporting Station
Overcast Overcast  
Wind Chill: 52°   Ceiling: 700
Heat Index: 52°   Visibility: 7mi
Dew Point: 51°   Wind: 15mph
Humidity: 95%   Direction: 180°S
Pressure: 29.56"   Gusts: NA
Location:  41.84°N, 94.1°W
Report Text: KPRO 230715Z AUTO 18013KT 7SM OVC007 11/10 A2956 RMK AO2 T01100103
Loading
Personal Weather Stations






























Interactive Weather Map New forecast layout! Learn more

10-Day Weather Forecast

Advertisements
Track Severe Weather on mobile